createdAt,value
2017-08-12T00:01:03.144Z,15.66
2017-08-12T00:03:31.836Z,15.63
2017-08-12T00:06:00.526Z,15.59
2017-08-12T00:08:29.194Z,15.60
2017-08-12T00:10:57.886Z,15.61
2017-08-12T00:13:26.663Z,15.58
2017-08-12T00:15:55.315Z,15.61
2017-08-12T00:18:24.038Z,15.61
2017-08-12T00:20:52.980Z,15.60
2017-08-12T00:23:21.669Z,15.58
2017-08-12T00:25:50.415Z,15.59
2017-08-12T00:28:19.087Z,15.55
2017-08-12T00:30:47.807Z,15.59
2017-08-12T00:33:18.174Z,15.61
2017-08-12T00:35:46.900Z,15.59
2017-08-12T00:38:15.600Z,15.58
2017-08-12T00:40:44.339Z,15.55
2017-08-12T00:43:13.022Z,15.54
2017-08-12T00:45:41.828Z,15.52
2017-08-12T00:48:10.535Z,15.52
2017-08-12T00:50:39.369Z,15.51
2017-08-12T00:53:08.483Z,15.56
2017-08-12T00:55:38.134Z,15.53
2017-08-12T00:58:06.955Z,15.54
2017-08-12T01:00:36.284Z,15.54
2017-08-12T01:03:04.964Z,15.53
2017-08-12T01:05:33.673Z,15.52
2017-08-12T01:08:04.111Z,15.50
2017-08-12T01:10:32.880Z,15.50
2017-08-12T01:13:04.401Z,15.53
2017-08-12T01:15:33.039Z,15.52
2017-08-12T01:18:01.818Z,15.51
2017-08-12T01:20:30.530Z,15.51
2017-08-12T01:23:05.262Z,15.52
2017-08-12T01:25:33.898Z,15.50
2017-08-12T01:28:02.671Z,15.48
2017-08-12T01:30:31.335Z,15.42
2017-08-12T01:33:03.606Z,15.41
2017-08-12T01:35:32.291Z,15.41
2017-08-12T01:38:00.955Z,15.37
2017-08-12T01:40:29.648Z,15.40
2017-08-12T01:43:00.544Z,15.40
2017-08-12T01:45:29.504Z,15.36
2017-08-12T01:47:58.171Z,15.41
2017-08-12T01:50:26.950Z,15.37
2017-08-12T01:52:55.699Z,15.40
2017-08-12T01:55:24.435Z,15.34
2017-08-12T01:57:53.069Z,15.34
2017-08-12T02:00:21.882Z,15.30
2017-08-12T02:02:50.611Z,15.30
2017-08-12T02:05:19.706Z,15.34
2017-08-12T02:07:48.383Z,15.30
2017-08-12T02:10:17.160Z,15.28
2017-08-12T02:12:45.790Z,15.25
2017-08-12T02:15:15.510Z,15.25
2017-08-12T02:17:44.237Z,15.23
2017-08-12T02:20:12.971Z,15.20
2017-08-12T02:22:41.603Z,15.19
2017-08-12T02:25:10.618Z,15.16
2017-08-12T02:27:39.350Z,15.12
2017-08-12T02:30:08.078Z,15.12
2017-08-12T02:32:36.763Z,15.08
2017-08-12T02:35:05.511Z,15.06
2017-08-12T02:37:34.247Z,15.01
2017-08-12T02:40:03.780Z,15.01
2017-08-12T02:42:32.562Z,14.99
2017-08-12T02:45:01.267Z,15.00
2017-08-12T02:47:30.015Z,14.99
2017-08-12T02:49:58.876Z,14.99
2017-08-12T02:52:27.523Z,14.99
2017-08-12T02:54:56.208Z,14.96
2017-08-12T02:57:24.933Z,14.93
2017-08-12T02:59:53.665Z,14.92
2017-08-12T03:02:22.431Z,14.90
2017-08-12T03:04:51.361Z,14.89
2017-08-12T03:07:20.366Z,14.89
2017-08-12T03:09:49.122Z,14.87
2017-08-12T03:12:17.840Z,14.89
2017-08-12T03:14:47.443Z,14.94
2017-08-12T03:17:16.160Z,14.92
2017-08-12T03:19:44.823Z,14.97
2017-08-12T03:22:13.497Z,14.96
2017-08-12T03:24:42.185Z,14.98
2017-08-12T03:27:10.893Z,14.97
2017-08-12T03:29:39.535Z,14.99
2017-08-12T03:32:08.278Z,14.98
2017-08-12T03:34:37.000Z,14.97
2017-08-12T03:37:05.704Z,14.98
2017-08-12T03:39:34.392Z,14.96
2017-08-12T03:42:04.104Z,14.96
2017-08-12T03:44:32.815Z,14.96
2017-08-12T03:47:01.580Z,14.97
2017-08-12T03:49:31.407Z,14.96
2017-08-12T03:52:00.119Z,14.97
2017-08-12T03:54:28.830Z,14.96
2017-08-12T03:56:57.552Z,14.98
2017-08-12T03:59:26.205Z,14.97
2017-08-12T04:01:54.908Z,14.97
2017-08-12T04:04:23.629Z,14.96
2017-08-12T04:06:52.376Z,14.95
2017-08-12T04:09:21.318Z,14.96
2017-08-12T04:11:50.008Z,14.96
2017-08-12T04:14:18.778Z,14.96
2017-08-12T04:16:47.490Z,14.94
2017-08-12T04:19:17.175Z,14.95
2017-08-12T04:21:45.903Z,14.95
2017-08-12T04:24:14.392Z,14.95
2017-08-12T04:26:43.364Z,14.95
2017-08-12T04:29:12.071Z,14.95
2017-08-12T04:31:42.857Z,14.97
2017-08-12T04:34:11.586Z,14.98
2017-08-12T04:36:40.363Z,14.98
2017-08-12T04:39:09.135Z,14.98
2017-08-12T04:41:37.813Z,14.94
2017-08-12T04:44:06.559Z,14.93
2017-08-12T04:46:35.279Z,14.96
2017-08-12T04:49:03.989Z,14.98
2017-08-12T04:51:32.698Z,14.95
2017-08-12T04:54:01.410Z,14.94
2017-08-12T04:56:30.093Z,14.95
2017-08-12T04:58:58.866Z,14.96
2017-08-12T05:01:27.563Z,14.95
2017-08-12T05:03:56.266Z,14.98
2017-08-12T05:06:25.765Z,14.96
2017-08-12T05:08:54.591Z,14.93
2017-08-12T05:11:23.243Z,14.92
2017-08-12T05:13:52.009Z,14.92
2017-08-12T05:16:20.700Z,14.93
2017-08-12T05:18:49.363Z,14.98
2017-08-12T05:21:18.134Z,14.97
2017-08-12T05:23:47.029Z,15.00
2017-08-12T05:26:15.788Z,15.02
2017-08-12T05:28:44.373Z,15.04
2017-08-12T05:31:13.137Z,15.04
2017-08-12T05:33:41.764Z,15.03
2017-08-12T05:36:10.484Z,15.05
2017-08-12T05:38:39.168Z,15.06
2017-08-12T05:41:07.885Z,15.06
2017-08-12T05:43:36.586Z,15.09
2017-08-12T05:46:05.266Z,15.09
2017-08-12T05:48:34.009Z,15.11
2017-08-12T05:51:03.133Z,15.13
2017-08-12T05:53:31.851Z,15.14
2017-08-12T05:56:00.534Z,15.16
2017-08-12T05:58:29.267Z,15.20
2017-08-12T06:00:58.021Z,15.23
2017-08-12T06:03:26.672Z,15.26
2017-08-12T06:05:56.460Z,15.29
2017-08-12T06:08:25.174Z,15.31
2017-08-12T06:10:53.921Z,15.34
2017-08-12T06:13:22.618Z,15.36
2017-08-12T06:15:51.357Z,15.39
2017-08-12T06:18:20.085Z,15.42
2017-08-12T06:20:49.064Z,15.44
2017-08-12T06:23:17.726Z,15.46
2017-08-12T06:25:46.457Z,15.48
2017-08-12T06:28:15.142Z,15.49
2017-08-12T06:30:43.812Z,15.52
2017-08-12T06:33:12.527Z,15.55
2017-08-12T06:35:41.838Z,15.58
2017-08-12T06:38:10.539Z,15.61
2017-08-12T06:40:39.196Z,15.65
2017-08-12T06:43:07.970Z,15.68
2017-08-12T06:45:36.741Z,15.72
2017-08-12T06:48:05.785Z,15.76
2017-08-12T06:50:34.429Z,15.79
2017-08-12T06:53:03.572Z,15.84
2017-08-12T06:55:33.239Z,15.88
2017-08-12T06:58:01.985Z,15.93
2017-08-12T07:00:30.682Z,15.96
2017-08-12T07:03:02.739Z,16.00
2017-08-12T07:05:33.042Z,16.03
2017-08-12T07:08:01.716Z,16.07
2017-08-12T07:10:30.452Z,16.09
2017-08-12T07:13:00.318Z,16.11
2017-08-12T07:15:29.081Z,16.13
2017-08-12T07:17:57.848Z,16.16
2017-08-12T07:20:26.552Z,16.18
2017-08-12T07:22:55.321Z,16.20
2017-08-12T07:25:24.061Z,16.20
2017-08-12T07:27:52.800Z,16.22
2017-08-12T07:30:21.456Z,16.22
2017-08-12T07:32:50.246Z,16.23
2017-08-12T07:35:18.956Z,16.26
2017-08-12T07:37:47.707Z,16.27
2017-08-12T07:40:16.485Z,16.26
2017-08-12T07:42:45.224Z,16.28
2017-08-12T07:45:13.921Z,16.30
2017-08-12T07:47:42.407Z,16.31
2017-08-12T07:50:12.053Z,16.32
2017-08-12T07:52:40.854Z,16.34
2017-08-12T07:55:09.756Z,16.35
2017-08-12T07:57:38.443Z,16.36
2017-08-12T08:00:07.153Z,16.38
2017-08-12T08:02:36.206Z,16.40
2017-08-12T08:05:05.825Z,16.41
2017-08-12T08:07:34.547Z,16.41
2017-08-12T08:10:03.280Z,16.42
2017-08-12T08:12:31.937Z,16.45
2017-08-12T08:15:00.669Z,16.46
2017-08-12T08:17:29.306Z,16.47
2017-08-12T08:19:58.004Z,16.49
2017-08-12T08:22:26.701Z,16.50
2017-08-12T08:24:55.458Z,16.52
2017-08-12T08:27:24.188Z,16.54
2017-08-12T08:29:52.846Z,16.56
2017-08-12T08:32:21.558Z,16.57
2017-08-12T08:34:50.215Z,16.60
2017-08-12T08:37:18.933Z,16.62
2017-08-12T08:39:47.592Z,16.63
2017-08-12T08:42:16.307Z,16.66
2017-08-12T08:44:45.100Z,16.68
2017-08-12T08:47:13.791Z,16.71
2017-08-12T08:49:43.417Z,16.73
2017-08-12T08:52:12.117Z,16.77
2017-08-12T08:54:40.868Z,16.80
2017-08-12T08:57:09.538Z,16.82
2017-08-12T08:59:38.356Z,16.86
2017-08-12T09:02:07.069Z,16.90
2017-08-12T09:04:35.762Z,16.95
2017-08-12T09:07:04.581Z,16.98
2017-08-12T09:09:33.361Z,17.02
2017-08-12T09:12:02.236Z,17.06
2017-08-12T09:14:30.938Z,17.11
2017-08-12T09:16:59.734Z,17.15
2017-08-12T09:19:28.429Z,17.18
2017-08-12T09:21:57.293Z,17.23
2017-08-12T09:24:25.988Z,17.26
2017-08-12T09:26:54.711Z,17.30
2017-08-12T09:29:23.409Z,17.33
2017-08-12T09:31:52.173Z,17.34
2017-08-12T09:34:20.982Z,17.35
2017-08-12T09:36:49.693Z,17.36
2017-08-12T09:39:18.406Z,17.37
2017-08-12T09:41:47.168Z,17.37
2017-08-12T09:44:15.923Z,17.38
2017-08-12T09:46:44.575Z,17.35
2017-08-12T09:49:13.298Z,17.36
2017-08-12T09:51:42.310Z,17.35
2017-08-12T09:54:12.705Z,17.34
2017-08-12T09:56:41.490Z,17.33
2017-08-12T09:59:10.182Z,17.33
2017-08-12T10:01:38.830Z,17.31
2017-08-12T10:04:07.579Z,17.27
2017-08-12T10:06:36.302Z,17.26
2017-08-12T10:09:04.517Z,17.22
2017-08-12T10:11:33.662Z,17.15
2017-08-12T10:14:02.385Z,17.14
2017-08-12T10:16:31.097Z,17.12
2017-08-12T10:19:00.713Z,17.12
2017-08-12T10:21:29.552Z,17.08
2017-08-12T10:23:58.271Z,17.05
2017-08-12T10:26:27.122Z,17.07
2017-08-12T10:28:55.845Z,17.07
2017-08-12T10:31:24.593Z,17.06
2017-08-12T10:33:53.387Z,17.05
2017-08-12T10:36:22.084Z,17.05
2017-08-12T10:38:50.896Z,17.06
2017-08-12T10:41:19.584Z,17.05
2017-08-12T10:43:48.311Z,17.04
2017-08-12T10:46:17.039Z,17.05
2017-08-12T10:48:45.785Z,17.06
2017-08-12T10:51:14.534Z,17.09
2017-08-12T10:53:43.360Z,17.11
2017-08-12T10:56:12.133Z,17.12
2017-08-12T10:58:40.836Z,17.13
2017-08-12T11:01:09.597Z,17.17
2017-08-12T11:03:38.309Z,17.19
2017-08-12T11:06:07.100Z,17.21
2017-08-12T11:08:35.857Z,17.23
2017-08-12T11:11:04.579Z,17.24
2017-08-12T11:13:33.348Z,17.25
2017-08-12T11:16:02.173Z,17.26
2017-08-12T11:18:30.853Z,17.27
2017-08-12T11:20:59.615Z,17.28
2017-08-12T11:23:28.408Z,17.31
2017-08-12T11:25:56.820Z,17.31
2017-08-12T11:28:25.636Z,17.30
2017-08-12T11:30:55.126Z,17.32
2017-08-12T11:33:23.888Z,17.33
2017-08-12T11:35:52.491Z,17.35
2017-08-12T11:38:21.266Z,17.35
2017-08-12T11:40:49.924Z,17.36
2017-08-12T11:43:18.646Z,17.37
2017-08-12T11:45:47.617Z,17.35
2017-08-12T11:48:16.346Z,17.37
2017-08-12T11:50:44.840Z,17.38
2017-08-12T11:53:13.504Z,17.38
2017-08-12T11:55:42.356Z,17.37
2017-08-12T11:58:11.008Z,17.37
2017-08-12T12:03:09.144Z,17.40
2017-08-12T12:05:38.126Z,17.41
2017-08-12T12:08:06.944Z,17.40
2017-08-12T12:10:35.647Z,17.39
2017-08-12T12:13:04.311Z,17.36
2017-08-12T12:15:33.085Z,17.35
2017-08-12T12:18:01.867Z,17.34
2017-08-12T12:20:30.586Z,17.30
2017-08-12T12:23:02.711Z,17.28
2017-08-12T12:25:31.293Z,17.28
2017-08-12T12:28:00.049Z,17.28
2017-08-12T12:30:28.701Z,17.27
2017-08-12T12:32:57.926Z,17.25
2017-08-12T12:35:27.170Z,17.26
2017-08-12T12:37:55.859Z,17.25
2017-08-12T12:40:24.649Z,17.26
2017-08-12T12:42:53.314Z,17.25
2017-08-12T12:45:22.036Z,17.24
2017-08-12T12:47:50.765Z,17.24
2017-08-12T12:50:19.565Z,17.25
2017-08-12T12:52:48.266Z,17.24
2017-08-12T12:55:16.986Z,17.24
2017-08-12T12:57:45.694Z,17.22
2017-08-12T13:00:15.231Z,17.22
2017-08-12T13:02:44.028Z,17.21
2017-08-12T13:05:12.753Z,17.21
2017-08-12T13:07:41.911Z,17.22
2017-08-12T13:10:11.347Z,17.21
2017-08-12T13:12:40.274Z,17.22
2017-08-12T13:15:09.076Z,17.21
2017-08-12T13:17:37.867Z,17.22
2017-08-12T13:20:06.554Z,17.21
2017-08-12T13:22:35.330Z,17.22
2017-08-12T13:25:04.036Z,17.23
2017-08-12T13:27:33.003Z,17.23
2017-08-12T13:30:02.842Z,17.23
2017-08-12T13:32:31.304Z,17.23
2017-08-12T13:35:00.852Z,17.24
2017-08-12T13:37:29.558Z,17.24
2017-08-12T13:39:58.343Z,17.24
2017-08-12T13:42:27.969Z,17.25
2017-08-12T13:44:57.332Z,17.24
2017-08-12T13:47:26.388Z,17.23
2017-08-12T13:49:55.240Z,17.24
2017-08-12T13:52:25.319Z,17.25
2017-08-12T13:54:54.040Z,17.25
2017-08-12T13:57:23.475Z,17.26
2017-08-12T13:59:52.421Z,17.27
2017-08-12T14:02:21.527Z,17.27
2017-08-12T14:04:50.402Z,17.28
2017-08-12T14:07:19.413Z,17.28
2017-08-12T14:09:48.259Z,17.28
2017-08-12T14:12:17.361Z,17.28
2017-08-12T14:14:46.236Z,17.29
2017-08-12T14:17:15.266Z,17.30
2017-08-12T14:19:44.330Z,17.30
2017-08-12T14:22:13.309Z,17.31
2017-08-12T14:24:42.330Z,17.31
2017-08-12T14:27:11.337Z,17.31
2017-08-12T14:29:40.257Z,17.31
2017-08-12T14:32:09.364Z,17.31
2017-08-12T14:34:38.310Z,17.30
2017-08-12T14:37:07.270Z,17.31
2017-08-12T14:39:37.071Z,17.30
2017-08-12T14:42:05.970Z,17.31
2017-08-12T14:44:34.995Z,17.29
2017-08-12T14:47:04.021Z,17.29
2017-08-12T14:49:33.258Z,17.29
2017-08-12T14:52:02.285Z,17.30
2017-08-12T14:54:31.295Z,17.29
2017-08-12T14:57:00.342Z,17.30
2017-08-12T14:59:29.165Z,17.30
2017-08-12T15:01:58.168Z,17.30
2017-08-12T15:04:27.269Z,17.31
2017-08-12T15:06:56.265Z,17.31
2017-08-12T15:09:25.342Z,17.32
2017-08-12T15:11:54.850Z,17.32
2017-08-12T15:14:23.833Z,17.32
2017-08-12T15:16:52.660Z,17.32
2017-08-12T15:19:22.057Z,17.32
2017-08-12T15:21:51.097Z,17.32
2017-08-12T15:24:20.110Z,17.33
2017-08-12T15:26:49.053Z,17.34
2017-08-12T15:29:18.089Z,17.35
2017-08-12T15:31:46.881Z,17.34
2017-08-12T15:34:16.144Z,17.35
2017-08-12T15:36:45.848Z,17.35
2017-08-12T15:39:14.901Z,17.33
2017-08-12T15:41:43.860Z,17.34
2017-08-12T15:44:12.852Z,17.34
2017-08-12T15:46:41.853Z,17.34
2017-08-12T15:49:11.100Z,17.34
2017-08-12T15:51:40.810Z,17.33
2017-08-12T15:54:09.624Z,17.35
2017-08-12T15:56:38.502Z,17.35
2017-08-12T15:59:07.106Z,17.36
2017-08-12T16:01:35.981Z,17.36
2017-08-12T16:04:05.053Z,17.38
2017-08-12T16:06:33.848Z,17.39
2017-08-12T16:09:02.321Z,17.38
2017-08-12T16:11:31.009Z,17.40
2017-08-12T16:13:59.768Z,17.41
2017-08-12T16:16:29.075Z,17.40
2017-08-12T16:18:58.243Z,17.41
2017-08-12T16:21:27.195Z,17.42
2017-08-12T16:23:55.881Z,17.44
2017-08-12T16:26:24.539Z,17.44
2017-08-12T16:28:53.471Z,17.45
2017-08-12T16:31:22.615Z,17.46
2017-08-12T16:33:51.537Z,17.48
2017-08-12T16:36:20.661Z,17.49
2017-08-12T16:38:49.631Z,17.50
2017-08-12T16:41:18.736Z,17.51
2017-08-12T16:43:47.697Z,17.53
2017-08-12T16:46:16.657Z,17.53
2017-08-12T16:48:45.660Z,17.54
2017-08-12T16:51:14.689Z,17.55
2017-08-12T16:53:43.663Z,17.55
2017-08-12T16:56:12.608Z,17.55
2017-08-12T16:58:41.460Z,17.56
2017-08-12T17:01:10.583Z,17.56
2017-08-12T17:03:39.602Z,17.56
2017-08-12T17:06:08.599Z,17.55
2017-08-12T17:08:37.675Z,17.55
2017-08-12T17:11:06.693Z,17.55
2017-08-12T17:13:35.602Z,17.54
2017-08-12T17:16:04.445Z,17.54
2017-08-12T17:18:33.476Z,17.53
2017-08-12T17:21:02.379Z,17.53
2017-08-12T17:23:31.139Z,17.54
2017-08-12T17:26:00.783Z,17.54
2017-08-12T17:28:30.453Z,17.54
2017-08-12T17:30:59.566Z,17.54
2017-08-12T17:33:28.042Z,17.55
2017-08-12T17:35:57.746Z,17.54
2017-08-12T17:38:26.440Z,17.55
2017-08-12T17:40:55.253Z,17.56
2017-08-12T17:43:24.466Z,17.56
2017-08-12T17:45:53.243Z,17.56
2017-08-12T17:48:22.273Z,17.58
2017-08-12T17:50:51.375Z,17.58
2017-08-12T17:53:20.098Z,17.56
2017-08-12T17:55:48.838Z,17.55
2017-08-12T17:58:17.681Z,17.55
2017-08-12T18:00:46.649Z,17.55
2017-08-12T18:03:15.587Z,17.53
2017-08-12T18:05:44.289Z,17.54
2017-08-12T18:08:13.079Z,17.53
2017-08-12T18:10:42.181Z,17.52
2017-08-12T18:13:11.768Z,17.52
2017-08-12T18:15:40.524Z,17.52
2017-08-12T18:18:09.635Z,17.51
2017-08-12T18:20:38.595Z,17.50
2017-08-12T18:23:07.448Z,17.48
2017-08-12T18:25:36.313Z,17.47
2017-08-12T18:28:05.157Z,17.46
2017-08-12T18:30:33.939Z,17.43
2017-08-12T18:33:06.767Z,17.42
2017-08-12T18:35:35.490Z,17.40
2017-08-12T18:38:04.206Z,17.36
2017-08-12T18:40:32.969Z,17.33
2017-08-12T18:43:04.614Z,17.32
2017-08-12T18:45:36.410Z,17.29
2017-08-12T18:48:06.311Z,17.26
2017-08-12T18:50:35.355Z,17.24
2017-08-12T18:53:07.082Z,17.20
2017-08-12T18:55:36.168Z,17.16
2017-08-12T18:58:05.763Z,17.11
2017-08-12T19:00:34.647Z,17.08
2017-08-12T19:03:06.328Z,17.04
2017-08-12T19:05:35.278Z,16.99
2017-08-12T19:08:04.038Z,16.97
2017-08-12T19:10:32.823Z,16.93
2017-08-12T19:13:05.300Z,16.89
2017-08-12T19:15:34.044Z,16.85
2017-08-12T19:18:03.831Z,16.81
2017-08-12T19:20:32.630Z,16.78
2017-08-12T19:23:04.143Z,16.75
2017-08-12T19:25:33.245Z,16.73
2017-08-12T19:28:02.120Z,16.70
2017-08-12T19:30:30.851Z,16.66
2017-08-12T19:33:01.531Z,16.64
2017-08-12T19:35:31.163Z,16.60
2017-08-12T19:37:59.835Z,16.58
2017-08-12T19:40:28.539Z,16.56
2017-08-12T19:42:57.269Z,16.53
2017-08-12T19:45:26.235Z,16.49
2017-08-12T19:47:55.136Z,16.47
2017-08-12T19:50:23.859Z,16.43
2017-08-12T19:52:52.512Z,16.40
2017-08-12T19:55:22.233Z,16.37
2017-08-12T19:57:51.008Z,16.35
2017-08-12T20:00:19.733Z,16.31
2017-08-12T20:02:49.503Z,16.27
2017-08-12T20:05:18.315Z,16.24
2017-08-12T20:07:47.107Z,16.20
2017-08-12T20:10:20.282Z,16.16
2017-08-12T20:12:48.961Z,16.15
2017-08-12T20:15:17.936Z,16.11
2017-08-12T20:17:46.832Z,16.08
2017-08-12T20:20:15.408Z,16.05
2017-08-12T20:22:44.203Z,16.04
2017-08-12T20:25:12.923Z,16.00
2017-08-12T20:27:41.741Z,15.98
2017-08-12T20:30:10.458Z,15.96
2017-08-12T20:32:39.214Z,15.92
2017-08-12T20:35:07.870Z,15.92
2017-08-12T20:37:37.531Z,15.91
2017-08-12T20:40:06.276Z,15.89
2017-08-12T20:42:35.006Z,15.88
2017-08-12T20:45:03.679Z,15.84
2017-08-12T20:47:32.696Z,15.84
2017-08-12T20:50:03.095Z,15.84
2017-08-12T20:52:31.882Z,15.80
2017-08-12T20:55:00.624Z,15.81
2017-08-12T20:57:30.419Z,15.80
2017-08-12T20:59:59.053Z,15.82
2017-08-12T21:02:28.299Z,15.80
2017-08-12T21:04:57.008Z,15.80
2017-08-12T21:07:25.672Z,15.79
2017-08-12T21:09:54.533Z,15.78
2017-08-12T21:12:23.200Z,15.77
2017-08-12T21:14:51.936Z,15.75
2017-08-12T21:17:20.647Z,15.73
2017-08-12T21:19:49.072Z,15.78
2017-08-12T21:22:18.741Z,15.77
2017-08-12T21:24:47.515Z,15.75
2017-08-12T21:27:16.392Z,15.78
2017-08-12T21:29:45.099Z,15.81
2017-08-12T21:32:13.574Z,15.80
2017-08-12T21:34:43.768Z,15.81
2017-08-12T21:37:12.492Z,15.83
2017-08-12T21:39:42.361Z,15.86
2017-08-12T21:42:11.366Z,15.85
2017-08-12T21:44:40.023Z,15.85
2017-08-12T21:47:09.694Z,15.86
2017-08-12T21:49:39.219Z,15.88
2017-08-12T21:52:07.770Z,15.89
2017-08-12T21:54:36.868Z,15.88
2017-08-12T21:57:05.675Z,15.91
2017-08-12T21:59:35.010Z,15.90
2017-08-12T22:02:03.714Z,15.87
2017-08-12T22:04:32.530Z,15.87
2017-08-12T22:07:01.227Z,15.85
2017-08-12T22:09:30.005Z,15.84
2017-08-12T22:11:59.602Z,15.83
2017-08-12T22:14:28.270Z,15.82
2017-08-12T22:16:57.952Z,15.81
2017-08-12T22:19:26.773Z,15.76
2017-08-12T22:21:56.287Z,15.76
2017-08-12T22:24:25.037Z,15.74
2017-08-12T22:26:54.270Z,15.71
2017-08-12T22:29:23.005Z,15.69
2017-08-12T22:31:51.721Z,15.66
2017-08-12T22:34:20.457Z,15.65
2017-08-12T22:36:49.218Z,15.64
2017-08-12T22:39:17.927Z,15.62
2017-08-12T22:41:47.411Z,15.58
2017-08-12T22:44:16.172Z,15.55
2017-08-12T22:46:44.853Z,15.55
2017-08-12T22:49:13.705Z,15.52
2017-08-12T22:51:43.251Z,15.50
2017-08-12T22:54:11.997Z,15.47
2017-08-12T22:56:40.780Z,15.46
2017-08-12T22:59:09.589Z,15.48
2017-08-12T23:01:38.340Z,15.45
2017-08-12T23:04:06.991Z,15.43
2017-08-12T23:06:35.992Z,15.44
2017-08-12T23:09:04.039Z,15.41
2017-08-12T23:11:32.791Z,15.41
2017-08-12T23:14:01.448Z,15.39
2017-08-12T23:16:30.493Z,15.39
2017-08-12T23:18:59.196Z,15.36
2017-08-12T23:21:27.670Z,15.35
2017-08-12T23:23:56.384Z,15.33
2017-08-12T23:26:25.091Z,15.31
2017-08-12T23:28:53.936Z,15.30
2017-08-12T23:31:23.394Z,15.29
2017-08-12T23:33:52.139Z,15.28
2017-08-12T23:36:20.808Z,15.27
2017-08-12T23:38:49.511Z,15.26
2017-08-12T23:41:18.201Z,15.26
2017-08-12T23:43:46.977Z,15.24
2017-08-12T23:46:15.443Z,15.24
2017-08-12T23:48:43.955Z,15.26
2017-08-12T23:51:12.710Z,15.29
2017-08-12T23:53:41.487Z,15.26
2017-08-12T23:56:10.125Z,15.28
2017-08-12T23:58:38.897Z,15.26
